Time;durP1;ratioP1;P1;durP2;ratioP2;P2;SDS_P1;SDS_P2;PMS_P1;PMS_P2;Temp;Humidity;BMP_temperature;BMP_pressure;BME280_temperature;BME280_humidity;BME280_pressure;Samples;Min_cycle;Max_cycle;Signal;HPM_P1;HPM_P2
2024/02/03 00:00:51;;;;;;;2.28;2.08;;;;;;;;;;5081726;28;20201;-79
2024/02/03 00:03:19;;;;;;;1.98;1.83;;;;;;;;;;5081984;28;20703;-79
2024/02/03 00:05:46;;;;;;;2.40;2.20;;;;;;;;;;5081129;28;20216;-78
2024/02/03 00:08:14;;;;;;;2.83;1.73;;;;;;;;;;5096260;28;20296;-78
2024/02/03 00:10:41;;;;;;;1.60;1.50;;;;;;;;;;5101990;28;20219;-78
2024/02/03 00:13:14;;;;;;;2.58;2.30;;;;;;;;;;5101109;28;20203;-79
2024/02/03 00:15:43;;;;;;;1.73;1.63;;;;;;;;;;5102042;28;20248;-79
2024/02/03 00:18:11;;;;;;;1.70;1.58;;;;;;;;;;5101625;28;20716;-79
2024/02/03 00:20:39;;;;;;;1.35;1.25;;;;;;;;;;5100473;28;20666;-78
2024/02/03 00:23:06;;;;;;;1.30;1.20;;;;;;;;;;5095157;28;20225;-79
2024/02/03 00:25:34;;;;;;;1.75;1.65;;;;;;;;;;5080833;28;20205;-79
2024/02/03 00:28:01;;;;;;;1.60;1.50;;;;;;;;;;5086132;28;20244;-79
2024/02/03 00:30:29;;;;;;;2.25;2.05;;;;;;;;;;5101805;28;20724;-79
2024/02/03 00:32:58;;;;;;;1.25;1.20;;;;;;;;;;5095526;28;20688;-79
2024/02/03 00:35:26;;;;;;;3.13;1.92;;;;;;;;;;5080749;28;20197;-79
2024/02/03 00:37:53;;;;;;;2.10;1.90;;;;;;;;;;5088523;28;20205;-78
2024/02/03 00:40:21;;;;;;;1.45;1.35;;;;;;;;;;5080849;28;20197;-79
2024/02/03 00:42:50;;;;;;;1.50;1.40;;;;;;;;;;5080621;28;20596;-79
2024/02/03 00:45:17;;;;;;;1.80;1.70;;;;;;;;;;5097366;28;20204;-78
2024/02/03 00:47:45;;;;;;;1.58;1.27;;;;;;;;;;5100608;28;20232;-78
2024/02/03 00:50:15;;;;;;;1.40;1.30;;;;;;;;;;5100250;28;20200;-79
2024/02/03 00:52:42;;;;;;;1.42;1.33;;;;;;;;;;5101138;28;20247;-79
2024/02/03 00:55:10;;;;;;;1.50;1.40;;;;;;;;;;5101015;28;20200;-79
2024/02/03 00:57:38;;;;;;;1.52;1.42;;;;;;;;;;5100483;28;20224;-79
2024/02/03 01:00:09;;;;;;;4.80;1.60;;;;;;;;;;5100484;28;20204;-79
2024/02/03 01:02:36;;;;;;;1.83;1.73;;;;;;;;;;5100403;28;20220;-79
2024/02/03 01:05:05;;;;;;;1.75;1.65;;;;;;;;;;5100054;28;20204;-79
2024/02/03 01:07:34;;;;;;;1.50;1.40;;;;;;;;;;5100559;28;20303;-79
2024/02/03 01:10:02;;;;;;;1.88;1.77;;;;;;;;;;5101171;28;20584;-79
2024/02/03 01:12:29;;;;;;;1.45;1.35;;;;;;;;;;5091638;28;20211;-79
2024/02/03 01:14:57;;;;;;;1.27;1.17;;;;;;;;;;5099286;28;20201;-79
2024/02/03 01:17:24;;;;;;;1.48;1.25;;;;;;;;;;5100373;28;20281;-79
2024/02/03 01:19:53;;;;;;;1.45;1.35;;;;;;;;;;5100154;28;20208;-78
2024/02/03 01:22:21;;;;;;;1.90;1.80;;;;;;;;;;5100938;28;20202;-79
2024/02/03 01:24:50;;;;;;;0.90;0.90;;;;;;;;;;5100719;28;20216;-79
2024/02/03 01:27:17;;;;;;;1.30;1.20;;;;;;;;;;5100611;28;20224;-79
2024/02/03 01:29:45;;;;;;;1.00;1.00;;;;;;;;;;5080647;28;20201;-79
2024/02/03 01:32:13;;;;;;;1.50;1.40;;;;;;;;;;5094279;28;20207;-78
2024/02/03 01:34:40;;;;;;;2.55;1.40;;;;;;;;;;5099450;28;20228;-79
2024/02/03 01:37:08;;;;;;;1.45;1.35;;;;;;;;;;5099822;28;20280;-79
2024/02/03 01:39:35;;;;;;;1.10;1.10;;;;;;;;;;5099973;28;20259;-79
2024/02/03 01:42:04;;;;;;;3.15;2.90;;;;;;;;;;5099832;28;20671;-79
2024/02/03 01:44:32;;;;;;;1.02;1.02;;;;;;;;;;5100323;28;20220;-79
2024/02/03 01:47:00;;;;;;;1.55;1.45;;;;;;;;;;5090809;28;20698;-79
2024/02/03 01:49:29;;;;;;;1.48;1.30;;;;;;;;;;5100228;28;20265;-79
2024/02/03 01:51:57;;;;;;;2.15;1.80;;;;;;;;;;5095117;28;20223;-79
2024/02/03 01:54:24;;;;;;;1.60;1.50;;;;;;;;;;5078775;28;20296;-79
2024/02/03 01:56:53;;;;;;;1.55;1.45;;;;;;;;;;5080219;28;20278;-79
2024/02/03 01:59:24;;;;;;;1.80;1.65;;;;;;;;;;5080145;28;20659;-79
2024/02/03 02:01:52;;;;;;;1.80;1.70;;;;;;;;;;5079218;28;20201;-79
2024/02/03 02:04:20;;;;;;;1.98;1.77;;;;;;;;;;5079389;28;20256;-79
2024/02/03 02:06:47;;;;;;;1.83;1.60;;;;;;;;;;5079155;28;20281;-79
2024/02/03 02:09:20;;;;;;;1.63;1.52;;;;;;;;;;5078900;28;20200;-79
2024/02/03 02:11:48;;;;;;;5.03;1.70;;;;;;;;;;5079640;28;20197;-78
2024/02/03 02:14:16;;;;;;;1.88;1.70;;;;;;;;;;5086347;28;20310;-79
2024/02/03 02:16:45;;;;;;;1.38;1.27;;;;;;;;;;5099644;28;20228;-79
2024/02/03 02:19:13;;;;;;;1.20;1.20;;;;;;;;;;5098736;28;20216;-79
2024/02/03 02:21:42;;;;;;;1.33;1.23;;;;;;;;;;5099947;28;20257;-79
2024/02/03 02:24:10;;;;;;;1.30;1.20;;;;;;;;;;5099588;28;20267;-79
2024/02/03 02:26:37;;;;;;;1.23;1.20;;;;;;;;;;5099790;28;20216;-79
2024/02/03 02:29:05;;;;;;;1.50;1.40;;;;;;;;;;5099938;28;20204;-79
2024/02/03 02:31:32;;;;;;;1.10;1.10;;;;;;;;;;5099591;28;20228;-79
2024/02/03 02:34:00;;;;;;;1.15;1.10;;;;;;;;;;5099110;28;20233;-79
2024/02/03 02:36:27;;;;;;;1.45;1.35;;;;;;;;;;5099414;28;20229;-79
2024/02/03 02:38:56;;;;;;;1.30;1.20;;;;;;;;;;5099409;28;20233;-79
2024/02/03 02:41:24;;;;;;;1.05;1.05;;;;;;;;;;5099381;28;20208;-79
2024/02/03 02:43:52;;;;;;;1.40;1.30;;;;;;;;;;5104182;28;20249;-79
2024/02/03 02:46:25;;;;;;;0.90;0.90;;;;;;;;;;5105783;28;20489;-79
2024/02/03 02:48:53;;;;;;;1.45;1.35;;;;;;;;;;5104720;28;20635;-78
2024/02/03 02:51:21;;;;;;;1.80;1.50;;;;;;;;;;5103495;28;20296;-79
2024/02/03 02:53:48;;;;;;;1.27;1.20;;;;;;;;;;5103995;28;20228;-78
2024/02/03 02:56:17;;;;;;;1.25;1.15;;;;;;;;;;5103434;28;20617;-78
2024/02/03 02:58:45;;;;;;;1.38;1.27;;;;;;;;;;5104568;28;20200;-79
2024/02/03 03:01:12;;;;;;;1.48;1.38;;;;;;;;;;5104002;28;20575;-79
2024/02/03 03:03:40;;;;;;;1.02;1.02;;;;;;;;;;5102603;28;20207;-79
2024/02/03 03:06:08;;;;;;;1.10;1.10;;;;;;;;;;5103926;28;20617;-78
2024/02/03 03:08:35;;;;;;;1.27;1.17;;;;;;;;;;5104057;28;20264;-78
2024/02/03 03:11:03;;;;;;;1.40;1.30;;;;;;;;;;5104300;28;20232;-79
2024/02/03 03:13:32;;;;;;;1.45;1.20;;;;;;;;;;5104314;28;20230;-78
2024/02/03 03:15:59;;;;;;;2.05;1.83;;;;;;;;;;5104861;28;20196;-78
2024/02/03 03:18:27;;;;;;;1.65;1.55;;;;;;;;;;5104003;28;20253;-80
2024/02/03 03:20:54;;;;;;;1.10;1.00;;;;;;;;;;5103220;28;20228;-78
2024/02/03 03:23:22;;;;;;;1.38;1.27;;;;;;;;;;5102915;28;20240;-78
2024/02/03 03:25:49;;;;;;;1.05;1.05;;;;;;;;;;5102526;28;20226;-78
2024/02/03 03:28:17;;;;;;;1.20;1.20;;;;;;;;;;5103862;28;20250;-78
2024/02/03 03:30:45;;;;;;;0.93;0.93;;;;;;;;;;5103508;28;20231;-77
2024/02/03 03:33:13;;;;;;;1.15;1.13;;;;;;;;;;5105390;28;20263;-79
2024/02/03 03:35:40;;;;;;;1.42;1.33;;;;;;;;;;5103962;28;20196;-78
2024/02/03 03:38:08;;;;;;;0.80;0.80;;;;;;;;;;5103769;28;20307;-79
2024/02/03 03:40:35;;;;;;;0.82;0.80;;;;;;;;;;5103644;28;20294;-79
2024/02/03 03:43:03;;;;;;;1.20;1.10;;;;;;;;;;5103693;28;20202;-79
2024/02/03 03:45:31;;;;;;;1.05;1.05;;;;;;;;;;5104045;28;20227;-79
2024/02/03 03:48:00;;;;;;;1.27;1.17;;;;;;;;;;5103244;28;20230;-79
2024/02/03 03:50:27;;;;;;;1.45;0.98;;;;;;;;;;5103807;28;20196;-78
2024/02/03 03:52:55;;;;;;;1.40;1.30;;;;;;;;;;5104378;28;20204;-79
2024/02/03 03:55:22;;;;;;;1.23;1.13;;;;;;;;;;5099831;28;20602;-78
2024/02/03 03:57:49;;;;;;;1.30;1.20;;;;;;;;;;5101239;28;20252;-78
2024/02/03 04:00:18;;;;;;;2.50;1.73;;;;;;;;;;5091796;28;20286;-78
2024/02/03 04:02:46;;;;;;;1.60;1.05;;;;;;;;;;5099366;28;20283;-79
2024/02/03 04:05:15;;;;;;;1.42;1.33;;;;;;;;;;5100834;28;20220;-78
2024/02/03 04:07:42;;;;;;;1.17;1.08;;;;;;;;;;5101353;28;20260;-78
2024/02/03 04:10:10;;;;;;;1.40;1.30;;;;;;;;;;5100418;28;20656;-77
2024/02/03 04:12:38;;;;;;;2.20;1.88;;;;;;;;;;5099921;28;20196;-78
2024/02/03 04:15:06;;;;;;;2.75;1.70;;;;;;;;;;5099455;28;20227;-78
2024/02/03 04:17:34;;;;;;;2.55;1.70;;;;;;;;;;5099549;28;20307;-78
2024/02/03 04:20:02;;;;;;;2.80;2.03;;;;;;;;;;5100548;28;20200;-78
2024/02/03 04:22:31;;;;;;;1.20;1.17;;;;;;;;;;5100227;28;20295;-78
2024/02/03 04:24:58;;;;;;;1.50;1.40;;;;;;;;;;5087511;28;20241;-78
2024/02/03 04:27:26;;;;;;;2.08;1.60;;;;;;;;;;5079403;28;20227;-79
2024/02/03 04:29:53;;;;;;;1.50;1.40;;;;;;;;;;5099450;28;20283;-78
2024/02/03 04:32:21;;;;;;;1.33;1.23;;;;;;;;;;5100440;28;20235;-79
2024/02/03 04:34:48;;;;;;;1.27;1.20;;;;;;;;;;5088256;28;20215;-78
2024/02/03 04:37:16;;;;;;;1.33;1.23;;;;;;;;;;5086250;28;20297;-78
2024/02/03 04:39:45;;;;;;;1.60;1.45;;;;;;;;;;5100186;28;20235;-78
2024/02/03 04:42:13;;;;;;;1.80;1.70;;;;;;;;;;5101211;28;20203;-79
2024/02/03 04:44:41;;;;;;;1.90;1.63;;;;;;;;;;5101275;28;20669;-78
2024/02/03 04:47:08;;;;;;;1.70;1.60;;;;;;;;;;5100167;28;20319;-79
2024/02/03 04:49:36;;;;;;;1.35;1.25;;;;;;;;;;5081608;28;20572;-79
2024/02/03 04:52:04;;;;;;;1.60;1.50;;;;;;;;;;5079461;28;20239;-79
2024/02/03 04:54:31;;;;;;;1.67;1.42;;;;;;;;;;5097163;28;20208;-79
2024/02/03 04:57:00;;;;;;;2.20;1.85;;;;;;;;;;5099497;28;20251;-79
2024/02/03 04:59:27;;;;;;;1.65;1.55;;;;;;;;;;5099532;28;20291;-79
2024/02/03 05:01:55;;;;;;;1.17;1.10;;;;;;;;;;5098987;28;20212;-79
2024/02/03 05:04:22;;;;;;;1.40;1.30;;;;;;;;;;5099029;28;20690;-79
2024/02/03 05:06:50;;;;;;;1.30;1.20;;;;;;;;;;5098429;28;20220;-78
2024/02/03 05:09:17;;;;;;;1.67;1.58;;;;;;;;;;5098842;28;20201;-78
2024/02/03 05:11:45;;;;;;;1.08;1.08;;;;;;;;;;5098595;28;20267;-78
2024/02/03 05:14:13;;;;;;;1.00;1.00;;;;;;;;;;5098754;28;20206;-78
2024/02/03 05:16:41;;;;;;;1.05;1.05;;;;;;;;;;5098530;28;20303;-78
2024/02/03 05:19:09;;;;;;;1.23;1.13;;;;;;;;;;5098735;28;20204;-78
2024/02/03 05:21:37;;;;;;;1.25;1.20;;;;;;;;;;5098477;28;20295;-78
2024/02/03 05:24:05;;;;;;;1.05;1.05;;;;;;;;;;5098208;28;20271;-79
2024/02/03 05:26:33;;;;;;;1.00;1.00;;;;;;;;;;5098398;28;20231;-78
2024/02/03 05:29:00;;;;;;;1.00;1.00;;;;;;;;;;5097802;28;20296;-79
2024/02/03 05:31:29;;;;;;;1.55;1.45;;;;;;;;;;5097946;28;20204;-78
2024/02/03 05:33:56;;;;;;;1.48;1.23;;;;;;;;;;5098083;28;20200;-78
2024/02/03 05:36:24;;;;;;;1.17;1.08;;;;;;;;;;5097145;28;20224;-79
2024/02/03 05:38:51;;;;;;;1.58;1.30;;;;;;;;;;5097173;28;20291;-79
2024/02/03 05:41:19;;;;;;;1.42;1.33;;;;;;;;;;5097469;28;20236;-78
2024/02/03 05:43:46;;;;;;;1.35;1.25;;;;;;;;;;5097357;28;20288;-78
2024/02/03 05:46:13;;;;;;;1.40;1.30;;;;;;;;;;5096416;28;20234;-79
2024/02/03 05:48:42;;;;;;;1.27;1.27;;;;;;;;;;5097316;28;20196;-78
2024/02/03 05:51:11;;;;;;;1.48;1.38;;;;;;;;;;5097148;28;20200;-78
2024/02/03 05:53:38;;;;;;;1.98;1.27;;;;;;;;;;5097749;28;20208;-78
2024/02/03 05:56:07;;;;;;;1.10;1.10;;;;;;;;;;5097539;28;20204;-78
2024/02/03 05:58:34;;;;;;;1.50;1.33;;;;;;;;;;5099410;28;20674;-79
2024/02/03 06:01:02;;;;;;;1.50;1.40;;;;;;;;;;5097771;28;20207;-79
2024/02/03 06:03:29;;;;;;;1.40;1.30;;;;;;;;;;5098438;28;20240;-78
2024/02/03 06:05:58;;;;;;;0.90;0.90;;;;;;;;;;5097416;28;20220;-78
2024/02/03 06:08:25;;;;;;;0.90;0.90;;;;;;;;;;5096562;28;20224;-78
2024/02/03 06:10:53;;;;;;;1.23;1.13;;;;;;;;;;5096515;28;20200;-78
2024/02/03 06:13:21;;;;;;;1.10;1.00;;;;;;;;;;5097284;28;20295;-80
2024/02/03 06:15:52;;;;;;;1.20;1.10;;;;;;;;;;5097522;28;20287;-78
2024/02/03 06:18:20;;;;;;;0.93;0.93;;;;;;;;;;5097270;28;20231;-78
2024/02/03 06:20:48;;;;;;;1.27;1.17;;;;;;;;;;5097590;28;20299;-78
2024/02/03 06:23:16;;;;;;;1.67;1.58;;;;;;;;;;5097197;28;20203;-77
2024/02/03 06:25:44;;;;;;;1.52;1.42;;;;;;;;;;5098312;28;20208;-78
2024/02/03 06:28:11;;;;;;;1.45;1.35;;;;;;;;;;5096931;28;20216;-78
2024/02/03 06:30:39;;;;;;;1.48;1.38;;;;;;;;;;5099399;28;20212;-78
2024/02/03 06:33:06;;;;;;;1.30;1.20;;;;;;;;;;5092849;28;20738;-78
2024/02/03 06:35:34;;;;;;;1.50;1.40;;;;;;;;;;5096703;28;20292;-79
2024/02/03 06:38:02;;;;;;;1.63;1.52;;;;;;;;;;5084500;28;20239;-79
2024/02/03 06:40:30;;;;;;;2.88;2.28;;;;;;;;;;5078968;28;20211;-79
2024/02/03 06:42:59;;;;;;;1.40;1.30;;;;;;;;;;5098768;28;20290;-79
2024/02/03 06:45:27;;;;;;;1.73;1.63;;;;;;;;;;5098017;28;20698;-79
2024/02/03 06:47:55;;;;;;;1.83;1.73;;;;;;;;;;5096137;28;20310;-79
2024/02/03 06:50:23;;;;;;;1.30;1.20;;;;;;;;;;5097716;28;20215;-78
2024/02/03 06:52:51;;;;;;;1.52;1.42;;;;;;;;;;5097958;28;20236;-78
2024/02/03 06:55:18;;;;;;;2.05;1.95;;;;;;;;;;5098044;28;20200;-78
2024/02/03 06:57:47;;;;;;;1.50;1.40;;;;;;;;;;5098762;28;20216;-79
2024/02/03 07:00:16;;;;;;;1.85;1.75;;;;;;;;;;5097986;28;20277;-78
2024/02/03 07:02:43;;;;;;;2.03;1.88;;;;;;;;;;5097436;28;20238;-79
2024/02/03 07:05:11;;;;;;;1.55;1.45;;;;;;;;;;5098103;28;20230;-78
2024/02/03 07:07:38;;;;;;;2.13;1.80;;;;;;;;;;5097501;28;20220;-78
2024/02/03 07:10:07;;;;;;;1.27;1.17;;;;;;;;;;5097654;28;20200;-78
2024/02/03 07:12:35;;;;;;;1.50;1.40;;;;;;;;;;5098578;28;20208;-78
2024/02/03 07:15:05;;;;;;;1.45;1.35;;;;;;;;;;5098354;28;20196;-79
2024/02/03 07:17:33;;;;;;;1.45;1.35;;;;;;;;;;5098250;28;20579;-79
2024/02/03 07:20:00;;;;;;;1.02;1.02;;;;;;;;;;5099161;28;20577;-79
2024/02/03 07:22:28;;;;;;;1.20;1.10;;;;;;;;;;5098451;28;20290;-79
2024/02/03 07:24:55;;;;;;;1.20;1.10;;;;;;;;;;5098916;28;20211;-78
2024/02/03 07:27:23;;;;;;;1.55;1.45;;;;;;;;;;5097528;28;20738;-79
2024/02/03 07:29:51;;;;;;;1.42;1.33;;;;;;;;;;5100835;28;20267;-79
2024/02/03 07:32:19;;;;;;;1.00;1.00;;;;;;;;;;5102194;28;20201;-78
2024/02/03 07:34:47;;;;;;;0.80;0.80;;;;;;;;;;5100827;28;20201;-79
2024/02/03 07:37:14;;;;;;;1.13;1.13;;;;;;;;;;5100606;28;20303;-78
2024/02/03 07:39:42;;;;;;;1.92;1.77;;;;;;;;;;5101164;28;20206;-78
2024/02/03 07:42:09;;;;;;;1.60;1.50;;;;;;;;;;5100634;28;20200;-78
2024/02/03 07:44:37;;;;;;;1.42;1.33;;;;;;;;;;5101705;28;20282;-78
2024/02/03 07:47:05;;;;;;;1.60;1.50;;;;;;;;;;5102010;28;20231;-80
2024/02/03 07:49:34;;;;;;;1.98;1.88;;;;;;;;;;5104408;28;20235;-83
2024/02/03 07:52:01;;;;;;;1.77;1.15;;;;;;;;;;5103025;28;20287;-82
2024/02/03 07:54:29;;;;;;;2.72;1.30;;;;;;;;;;5102775;28;20287;-82
2024/02/03 07:56:56;;;;;;;0.98;0.98;;;;;;;;;;5103724;28;20314;-81
2024/02/03 07:59:24;;;;;;;1.10;1.00;;;;;;;;;;5103410;28;20295;-80
2024/02/03 08:01:51;;;;;;;1.45;1.35;;;;;;;;;;5102789;28;20210;-81
2024/02/03 08:04:19;;;;;;;1.13;1.08;;;;;;;;;;5103215;28;20215;-81
2024/02/03 08:06:47;;;;;;;1.17;1.10;;;;;;;;;;5103331;28;20334;-81
2024/02/03 08:09:15;;;;;;;1.08;0.98;;;;;;;;;;5096121;28;20299;-81
2024/02/03 08:11:42;;;;;;;0.80;0.80;;;;;;;;;;5101793;28;20240;-80
2024/02/03 08:14:10;;;;;;;0.65;0.65;;;;;;;;;;5095182;28;20207;-81
2024/02/03 08:16:37;;;;;;;0.80;0.80;;;;;;;;;;5094000;28;20284;-81
2024/02/03 08:19:05;;;;;;;0.80;0.80;;;;;;;;;;5102014;28;20204;-81
2024/02/03 08:21:32;;;;;;;0.70;0.70;;;;;;;;;;5101766;28;20654;-80
2024/02/03 08:24:02;;;;;;;0.73;0.73;;;;;;;;;;5101478;28;20258;-82
2024/02/03 08:26:29;;;;;;;0.80;0.80;;;;;;;;;;5101300;28;20231;-82
2024/02/03 08:28:57;;;;;;;0.77;0.77;;;;;;;;;;5101666;28;20228;-81
2024/02/03 08:31:24;;;;;;;0.93;0.93;;;;;;;;;;5102783;28;20299;-81
2024/02/03 08:33:52;;;;;;;0.88;0.88;;;;;;;;;;5093722;28;20287;-82
2024/02/03 08:36:19;;;;;;;0.80;0.80;;;;;;;;;;5101729;28;20200;-82
2024/02/03 08:38:46;;;;;;;1.17;1.13;;;;;;;;;;5101452;28;20715;-81
2024/02/03 08:41:15;;;;;;;0.60;0.60;;;;;;;;;;5101062;28;20287;-82
2024/02/03 08:43:43;;;;;;;0.70;0.70;;;;;;;;;;5101452;28;20210;-80
2024/02/03 08:46:11;;;;;;;1.70;1.10;;;;;;;;;;5102313;28;20622;-81
2024/02/03 08:48:39;;;;;;;0.90;0.90;;;;;;;;;;5102617;28;20307;-79
2024/02/03 08:51:07;;;;;;;0.68;0.68;;;;;;;;;;5102521;28;20295;-82
2024/02/03 08:53:34;;;;;;;1.00;0.90;;;;;;;;;;5103225;28;20209;-80
2024/02/03 08:56:02;;;;;;;0.50;0.50;;;;;;;;;;5102310;28;20643;-80
2024/02/03 08:58:30;;;;;;;0.50;0.50;;;;;;;;;;5101226;28;20279;-80
2024/02/03 09:00:58;;;;;;;1.52;0.65;;;;;;;;;;5102100;28;20238;-81
2024/02/03 09:03:25;;;;;;;0.65;0.65;;;;;;;;;;5101954;28;20681;-81
2024/02/03 09:05:53;;;;;;;0.50;0.50;;;;;;;;;;5085316;28;20267;-80
2024/02/03 09:08:20;;;;;;;0.43;0.43;;;;;;;;;;5101838;28;20318;-82
2024/02/03 09:10:48;;;;;;;0.80;0.80;;;;;;;;;;5101802;28;20291;-81
2024/02/03 09:13:15;;;;;;;0.50;0.50;;;;;;;;;;5101399;28;20271;-80
2024/02/03 09:15:44;;;;;;;0.47;0.47;;;;;;;;;;5101545;28;20273;-79
2024/02/03 09:18:11;;;;;;;0.52;0.52;;;;;;;;;;5094963;28;20370;-80
2024/02/03 09:20:39;;;;;;;0.30;0.30;;;;;;;;;;5100125;28;20239;-80
2024/02/03 09:23:06;;;;;;;0.40;0.40;;;;;;;;;;5095747;28;20284;-81
2024/02/03 09:25:34;;;;;;;0.47;0.47;;;;;;;;;;5099063;28;20211;-81
2024/02/03 09:28:01;;;;;;;0.50;0.50;;;;;;;;;;5101564;28;20285;-81
2024/02/03 09:30:29;;;;;;;0.70;0.70;;;;;;;;;;5101141;28;20287;-81
2024/02/03 09:32:57;;;;;;;0.40;0.40;;;;;;;;;;5101439;28;20204;-81
2024/02/03 09:35:27;;;;;;;0.45;0.45;;;;;;;;;;5101881;28;20295;-80
2024/02/03 09:37:54;;;;;;;0.63;0.63;;;;;;;;;;5094145;28;20224;-82
2024/02/03 09:40:22;;;;;;;0.40;0.40;;;;;;;;;;5102118;28;20295;-81
2024/02/03 09:42:50;;;;;;;0.25;0.25;;;;;;;;;;5101878;28;20211;-82
2024/02/03 09:45:19;;;;;;;0.30;0.30;;;;;;;;;;5094902;28;20287;-81
2024/02/03 09:47:47;;;;;;;0.65;0.50;;;;;;;;;;5092878;28;20236;-80
2024/02/03 09:50:16;;;;;;;0.35;0.35;;;;;;;;;;5102164;28;20305;-81
2024/02/03 09:52:45;;;;;;;0.47;0.47;;;;;;;;;;5101670;28;20227;-80
2024/02/03 09:55:12;;;;;;;0.20;0.20;;;;;;;;;;5102807;28;20204;-81
2024/02/03 09:57:40;;;;;;;0.40;0.40;;;;;;;;;;5098088;28;20252;-80
2024/02/03 10:00:10;;;;;;;0.30;0.30;;;;;;;;;;5090780;28;20212;-79
2024/02/03 10:02:38;;;;;;;0.40;0.40;;;;;;;;;;5101382;28;20283;-79
2024/02/03 10:05:07;;;;;;;0.30;0.30;;;;;;;;;;5103718;28;20215;-80
2024/02/03 10:07:36;;;;;;;0.30;0.30;;;;;;;;;;5103291;28;20227;-80
2024/02/03 10:10:07;;;;;;;0.40;0.40;;;;;;;;;;5102324;28;20319;-80
2024/02/03 10:12:35;;;;;;;0.40;0.40;;;;;;;;;;5103192;28;20228;-80
2024/02/03 10:15:05;;;;;;;0.30;0.30;;;;;;;;;;5102536;28;20689;-80
2024/02/03 10:17:33;;;;;;;0.80;0.80;;;;;;;;;;5102527;28;20264;-81
2024/02/03 10:20:00;;;;;;;0.60;0.60;;;;;;;;;;5097862;28;20231;-81
2024/02/03 10:22:28;;;;;;;0.38;0.38;;;;;;;;;;5090647;28;20291;-80
2024/02/03 10:25:09;;;;;;;0.43;0.35;;;;;;;;;;5103070;28;20200;-81
2024/02/03 10:27:36;;;;;;;0.50;0.50;;;;;;;;;;5101100;28;20232;-81
2024/02/03 10:30:04;;;;;;;0.55;0.43;;;;;;;;;;5095554;28;20311;-80
2024/02/03 10:32:32;;;;;;;0.35;0.35;;;;;;;;;;5101541;28;20296;-81
2024/02/03 10:34:59;;;;;;;0.40;0.40;;;;;;;;;;5102556;28;20299;-80
2024/02/03 10:37:27;;;;;;;0.75;0.70;;;;;;;;;;5102138;28;20259;-80
2024/02/03 10:39:54;;;;;;;0.80;0.80;;;;;;;;;;5100935;28;20615;-80
2024/02/03 10:42:25;;;;;;;0.40;0.40;;;;;;;;;;5102011;28;20291;-80
2024/02/03 10:44:54;;;;;;;0.40;0.40;;;;;;;;;;5094054;28;20303;-81
2024/02/03 10:47:22;;;;;;;0.28;0.28;;;;;;;;;;5101856;28;20315;-80
2024/02/03 10:49:50;;;;;;;0.85;0.85;;;;;;;;;;5101718;28;20676;-81
2024/02/03 10:52:20;;;;;;;1.35;1.00;;;;;;;;;;5093220;28;20215;-81
2024/02/03 10:54:48;;;;;;;0.80;0.80;;;;;;;;;;5101462;28;20587;-80
2024/02/03 10:57:17;;;;;;;2.20;1.02;;;;;;;;;;5092554;28;20307;-81
2024/02/03 10:59:46;;;;;;;0.50;0.50;;;;;;;;;;5100304;28;20646;-79
2024/02/03 11:02:18;;;;;;;1.73;0.90;;;;;;;;;;5099508;28;20205;-80
2024/02/03 11:04:49;;;;;;;0.88;0.80;;;;;;;;;;5102179;28;20208;-82
2024/02/03 11:07:23;;;;;;;0.63;0.60;;;;;;;;;;5104870;28;20231;-81
2024/02/03 11:09:55;;;;;;;2.10;1.45;;;;;;;;;;5100880;28;20254;-82
2024/02/03 11:12:22;;;;;;;1.70;1.60;;;;;;;;;;5099635;28;20203;-81
2024/02/03 11:14:51;;;;;;;1.40;1.30;;;;;;;;;;5095454;28;20291;-81
2024/02/03 11:17:19;;;;;;;3.00;1.60;;;;;;;;;;5104308;28;20232;-81
2024/02/03 11:19:46;;;;;;;1.40;0.90;;;;;;;;;;5095014;28;20291;-81
2024/02/03 11:22:19;;;;;;;1.48;1.38;;;;;;;;;;5097720;28;20264;-81
2024/02/03 11:24:47;;;;;;;0.52;0.50;;;;;;;;;;5103771;28;20616;-80
2024/02/03 11:27:14;;;;;;;0.38;0.38;;;;;;;;;;5104668;28;20318;-80
2024/02/03 11:29:41;;;;;;;0.70;0.70;;;;;;;;;;5095292;28;20256;-81
2024/02/03 11:32:14;;;;;;;0.30;0.30;;;;;;;;;;5104332;28;20299;-81
2024/02/03 11:34:41;;;;;;;1.23;1.13;;;;;;;;;;5095567;28;20206;-80
2024/02/03 11:37:13;;;;;;;1.60;1.27;;;;;;;;;;5103654;28;20323;-79
2024/02/03 11:39:41;;;;;;;2.83;1.73;;;;;;;;;;5103831;28;20204;-80
2024/02/03 11:42:10;;;;;;;0.65;0.55;;;;;;;;;;5103618;28;20242;-79
2024/02/03 11:44:45;;;;;;;0.70;0.70;;;;;;;;;;5095660;28;20292;-81
2024/02/03 11:47:18;;;;;;;0.30;0.30;;;;;;;;;;5104639;28;20231;-80
2024/02/03 11:49:46;;;;;;;2.05;1.00;;;;;;;;;;5104425;28;20224;-80
2024/02/03 11:52:14;;;;;;;0.65;0.52;;;;;;;;;;5095284;28;20204;-79
2024/02/03 11:54:41;;;;;;;1.63;1.25;;;;;;;;;;5103510;28;20644;-79
2024/02/03 11:57:09;;;;;;;0.50;0.50;;;;;;;;;;5103439;28;20804;-79
2024/02/03 11:59:37;;;;;;;5.82;1.38;;;;;;;;;;5102135;28;20618;-79
2024/02/03 12:02:05;;;;;;;0.68;0.68;;;;;;;;;;5101399;28;20208;-81
2024/02/03 12:04:34;;;;;;;1.98;0.70;;;;;;;;;;5101902;28;20208;-81
2024/02/03 12:07:01;;;;;;;0.60;0.60;;;;;;;;;;5101259;28;20231;-79
2024/02/03 12:09:29;;;;;;;0.57;0.55;;;;;;;;;;5101119;28;20942;-81
2024/02/03 12:11:59;;;;;;;0.95;0.70;;;;;;;;;;5101254;28;20275;-81
2024/02/03 12:14:28;;;;;;;1.77;0.85;;;;;;;;;;5101103;28;20205;-81
2024/02/03 12:16:55;;;;;;;0.50;0.50;;;;;;;;;;5091004;28;20601;-81
2024/02/03 12:19:25;;;;;;;0.57;0.57;;;;;;;;;;5100976;28;20275;-80
2024/02/03 12:21:55;;;;;;;0.43;0.43;;;;;;;;;;5092897;28;20211;-80
2024/02/03 12:24:22;;;;;;;1.13;1.00;;;;;;;;;;5100991;28;20200;-79
2024/02/03 12:26:50;;;;;;;0.50;0.50;;;;;;;;;;5100590;28;20232;-80
2024/02/03 12:29:18;;;;;;;1.33;0.55;;;;;;;;;;5101312;28;20211;-80
2024/02/03 12:31:45;;;;;;;0.50;0.50;;;;;;;;;;5100064;28;20299;-81
2024/02/03 12:34:13;;;;;;;0.60;0.60;;;;;;;;;;5099894;28;20214;-80
2024/02/03 12:36:40;;;;;;;0.40;0.40;;;;;;;;;;5100392;28;20230;-81
2024/02/03 12:39:11;;;;;;;0.70;0.70;;;;;;;;;;5100217;28;20200;-80
2024/02/03 12:41:39;;;;;;;0.50;0.50;;;;;;;;;;5101483;28;20717;-82
2024/02/03 12:44:06;;;;;;;0.90;0.77;;;;;;;;;;5100609;28;20669;-81
2024/02/03 12:46:35;;;;;;;0.40;0.40;;;;;;;;;;5100348;28;20319;-80
2024/02/03 12:49:02;;;;;;;0.85;0.85;;;;;;;;;;5101399;28;20200;-81
2024/02/03 12:51:30;;;;;;;0.60;0.60;;;;;;;;;;5101029;28;20311;-81
2024/02/03 12:53:58;;;;;;;0.60;0.60;;;;;;;;;;5093107;28;20204;-80
2024/02/03 12:56:27;;;;;;;0.60;0.60;;;;;;;;;;5103918;28;20283;-81
2024/02/03 12:58:54;;;;;;;0.50;0.50;;;;;;;;;;5104910;28;20232;-80
2024/02/03 13:01:22;;;;;;;0.82;0.82;;;;;;;;;;5100575;28;20651;-79
2024/02/03 13:03:50;;;;;;;1.00;1.00;;;;;;;;;;5100624;28;20287;-81
2024/02/03 13:06:17;;;;;;;0.77;0.77;;;;;;;;;;5100700;28;20291;-82
2024/02/03 13:08:45;;;;;;;0.70;0.70;;;;;;;;;;5100266;28;20294;-80
2024/02/03 13:11:12;;;;;;;0.60;0.60;;;;;;;;;;5101633;28;20224;-81
2024/02/03 13:13:41;;;;;;;0.80;0.80;;;;;;;;;;5101860;28;20243;-81
2024/02/03 13:16:09;;;;;;;0.80;0.80;;;;;;;;;;5101102;28;20294;-82
2024/02/03 13:18:36;;;;;;;1.35;0.98;;;;;;;;;;5100836;28;20266;-81
2024/02/03 13:21:04;;;;;;;0.60;0.60;;;;;;;;;;5100728;28;20287;-82
2024/02/03 13:23:31;;;;;;;0.35;0.35;;;;;;;;;;5101331;28;20231;-81
2024/02/03 13:25:59;;;;;;;0.50;0.50;;;;;;;;;;5100719;28;20204;-80
2024/02/03 13:28:26;;;;;;;0.20;0.20;;;;;;;;;;5100497;28;20229;-80
2024/02/03 13:30:55;;;;;;;0.28;0.28;;;;;;;;;;5091713;28;20228;-81
2024/02/03 13:33:22;;;;;;;0.35;0.35;;;;;;;;;;5092274;28;20295;-81
2024/02/03 13:35:51;;;;;;;0.63;0.63;;;;;;;;;;5100263;28;20758;-81
2024/02/03 13:38:18;;;;;;;0.25;0.25;;;;;;;;;;5101144;28;20220;-81
2024/02/03 13:40:46;;;;;;;0.40;0.40;;;;;;;;;;5091728;28;20265;-81
2024/02/03 13:43:14;;;;;;;0.40;0.40;;;;;;;;;;5100110;28;20204;-81
2024/02/03 13:45:41;;;;;;;0.38;0.38;;;;;;;;;;5100360;28;20212;-80
2024/02/03 13:48:10;;;;;;;0.30;0.30;;;;;;;;;;5098153;28;20768;-77
2024/02/03 13:50:38;;;;;;;0.40;0.40;;;;;;;;;;5094566;28;20228;-77
2024/02/03 13:53:08;;;;;;;0.30;0.30;;;;;;;;;;5080396;28;20287;-77
2024/02/03 13:55:36;;;;;;;1.65;0.52;;;;;;;;;;5093099;28;20751;-77
2024/02/03 13:58:04;;;;;;;0.40;0.40;;;;;;;;;;5095435;28;20235;-78
2024/02/03 14:00:31;;;;;;;0.70;0.70;;;;;;;;;;5094620;28;20769;-77
2024/02/03 14:02:59;;;;;;;0.55;0.55;;;;;;;;;;5094772;28;20235;-77
2024/02/03 14:05:27;;;;;;;0.50;0.50;;;;;;;;;;5095662;28;20208;-77
2024/02/03 14:07:55;;;;;;;0.30;0.30;;;;;;;;;;5087652;28;20235;-76
2024/02/03 14:10:23;;;;;;;0.50;0.50;;;;;;;;;;5096489;28;20268;-77
2024/02/03 14:12:51;;;;;;;0.30;0.30;;;;;;;;;;5095136;28;20208;-77
2024/02/03 14:15:18;;;;;;;0.30;0.30;;;;;;;;;;5087501;28;20200;-78
2024/02/03 14:17:46;;;;;;;0.20;0.20;;;;;;;;;;5086938;28;20312;-77
2024/02/03 14:20:14;;;;;;;0.45;0.45;;;;;;;;;;5087765;28;20207;-77
2024/02/03 14:22:43;;;;;;;0.40;0.40;;;;;;;;;;5084219;28;20212;-78
2024/02/03 14:25:14;;;;;;;0.50;0.50;;;;;;;;;;5087032;28;20203;-77
2024/02/03 14:27:42;;;;;;;0.25;0.25;;;;;;;;;;5093290;28;20231;-78
2024/02/03 14:30:11;;;;;;;0.20;0.20;;;;;;;;;;5089427;28;20214;-78
2024/02/03 14:32:38;;;;;;;0.35;0.35;;;;;;;;;;5085485;28;20307;-77
2024/02/03 14:35:07;;;;;;;0.35;0.35;;;;;;;;;;5087102;28;20200;-77
2024/02/03 14:37:34;;;;;;;1.50;0.47;;;;;;;;;;5093849;28;20714;-77
2024/02/03 14:40:04;;;;;;;0.50;0.50;;;;;;;;;;5087229;28;20341;-77
2024/02/03 14:42:32;;;;;;;0.25;0.25;;;;;;;;;;5087576;28;20663;-78
2024/02/03 14:44:59;;;;;;;0.30;0.30;;;;;;;;;;5095431;28;20212;-77
2024/02/03 14:47:28;;;;;;;0.90;0.43;;;;;;;;;;5096566;28;20318;-77